createdAt,value
2022-12-06T00:01:33.854Z,18.33
2022-12-06T00:04:03.264Z,18.80
2022-12-06T00:06:31.821Z,18.85
2022-12-06T00:08:59.326Z,18.02
2022-12-06T00:11:28.635Z,19.42
2022-12-06T00:13:57.592Z,20.77
2022-12-06T00:16:25.161Z,18.65
2022-12-06T00:18:54.369Z,15.35
2022-12-06T00:21:24.463Z,16.38
2022-12-06T00:23:53.635Z,19.70
2022-12-06T00:26:21.515Z,17.70
2022-12-06T00:28:48.711Z,19.23
2022-12-06T00:31:17.660Z,18.17
2022-12-06T00:33:44.545Z,19.25
2022-12-06T00:36:16.617Z,18.75
2022-12-06T00:38:43.350Z,19.05
2022-12-06T00:41:12.398Z,17.33
2022-12-06T00:43:39.517Z,19.13
2022-12-06T00:46:08.803Z,18.75
2022-12-06T00:48:35.786Z,17.35
2022-12-06T00:51:02.478Z,19.25
2022-12-06T00:53:29.416Z,19.13
2022-12-06T00:55:56.102Z,19.60
2022-12-06T00:58:23.375Z,17.67
2022-12-06T01:00:50.995Z,16.10
2022-12-06T01:03:17.860Z,18.67
2022-12-06T01:05:47.203Z,17.17
2022-12-06T01:08:14.637Z,16.50
2022-12-06T01:10:42.565Z,16.08
2022-12-06T01:13:09.363Z,15.02
2022-12-06T01:15:36.927Z,18.80
2022-12-06T01:18:04.420Z,17.00
2022-12-06T01:20:31.364Z,18.55
2022-12-06T01:22:58.176Z,14.18
2022-12-06T01:25:26.316Z,15.68
2022-12-06T01:27:53.574Z,16.17
2022-12-06T01:30:20.331Z,14.93
2022-12-06T01:32:47.013Z,15.75
2022-12-06T01:35:13.796Z,17.65
2022-12-06T01:37:40.766Z,16.92
2022-12-06T01:40:08.711Z,16.23
2022-12-06T01:42:35.460Z,16.15
2022-12-06T01:45:02.252Z,13.25
2022-12-06T01:47:39.428Z,16.02
2022-12-06T01:50:17.686Z,16.23
2022-12-06T01:52:47.251Z,14.93
2022-12-06T01:55:14.319Z,15.38
2022-12-06T01:57:41.052Z,16.55
2022-12-06T02:00:08.500Z,16.70
2022-12-06T02:02:37.327Z,15.35
2022-12-06T02:05:04.196Z,14.70
2022-12-06T02:07:31.727Z,15.50
2022-12-06T02:09:58.969Z,15.07
2022-12-06T02:12:25.750Z,15.13
2022-12-06T02:14:53.869Z,15.63
2022-12-06T02:17:41.216Z,15.95
2022-12-06T02:20:23.032Z,17.80
2022-12-06T02:23:11.411Z,18.23
2022-12-06T02:25:51.430Z,16.55
2022-12-06T02:28:38.757Z,14.48
2022-12-06T02:31:15.200Z,16.73
2022-12-06T02:33:47.436Z,15.55
2022-12-06T02:36:19.388Z,15.13
2022-12-06T02:38:48.988Z,16.00
2022-12-06T02:41:24.847Z,15.65
2022-12-06T02:43:55.773Z,15.95
2022-12-06T02:46:23.504Z,16.20
2022-12-06T02:48:51.121Z,17.20
2022-12-06T02:51:18.272Z,16.08
2022-12-06T02:53:48.006Z,15.93
2022-12-06T02:56:16.746Z,16.38
2022-12-06T02:58:43.395Z,17.08
2022-12-06T03:01:18.796Z,18.13
2022-12-06T03:04:03.996Z,17.63
2022-12-06T03:06:51.692Z,18.85
2022-12-06T03:09:21.604Z,18.55
2022-12-06T03:12:02.658Z,18.80
2022-12-06T03:14:36.084Z,19.55
2022-12-06T03:17:27.306Z,18.35
2022-12-06T03:20:04.088Z,17.92
2022-12-06T03:22:39.848Z,20.15
2022-12-06T03:25:08.450Z,22.17
2022-12-06T03:27:35.806Z,22.52
2022-12-06T03:30:06.669Z,22.13
2022-12-06T03:32:34.280Z,21.63
2022-12-06T03:35:06.057Z,22.08
2022-12-06T03:37:33.619Z,22.63
2022-12-06T03:40:03.905Z,23.02
2022-12-06T03:42:31.431Z,25.83
2022-12-06T03:44:59.314Z,23.95
2022-12-06T03:47:46.602Z,21.75
2022-12-06T03:50:23.805Z,23.05
2022-12-06T03:52:51.816Z,23.85
2022-12-06T03:55:18.596Z,22.52
2022-12-06T03:57:45.280Z,21.52
2022-12-06T04:00:14.666Z,23.88
2022-12-06T04:02:41.461Z,23.00
2022-12-06T04:05:08.489Z,27.08
2022-12-06T04:07:35.274Z,24.48
2022-12-06T04:10:04.894Z,24.10
2022-12-06T04:12:52.533Z,22.20
2022-12-06T04:15:21.652Z,22.27
2022-12-06T04:18:07.050Z,17.98
2022-12-06T04:20:54.210Z,18.42
2022-12-06T04:23:21.252Z,17.80
2022-12-06T04:25:47.874Z,16.33
2022-12-06T04:28:33.191Z,18.85
2022-12-06T04:31:21.965Z,14.73
2022-12-06T04:34:08.322Z,15.07
2022-12-06T04:36:53.715Z,14.95
2022-12-06T04:39:21.088Z,13.88
2022-12-06T04:42:07.074Z,14.75
2022-12-06T04:44:33.836Z,14.52
2022-12-06T04:47:01.331Z,12.90
2022-12-06T04:49:28.213Z,13.57
2022-12-06T04:51:55.561Z,11.40
2022-12-06T04:54:22.629Z,12.50
2022-12-06T04:56:49.348Z,12.18
2022-12-06T04:59:16.594Z,13.38
2022-12-06T05:01:43.241Z,12.90
2022-12-06T05:04:09.933Z,10.82
2022-12-06T05:06:36.688Z,11.02
2022-12-06T05:09:04.494Z,12.70
2022-12-06T05:11:31.554Z,10.23
2022-12-06T05:13:59.243Z,11.63
2022-12-06T05:16:26.119Z,11.07
2022-12-06T05:18:52.910Z,12.20
2022-12-06T05:21:22.844Z,11.50
2022-12-06T05:23:50.308Z,11.98
2022-12-06T05:26:18.805Z,10.13
2022-12-06T05:28:46.724Z,10.45
2022-12-06T05:31:13.760Z,10.52
2022-12-06T05:33:40.635Z,11.05
2022-12-06T05:36:12.881Z,12.40
2022-12-06T05:38:39.741Z,11.05
2022-12-06T05:41:06.738Z,12.80
2022-12-06T05:43:33.839Z,11.30
2022-12-06T05:46:00.798Z,12.45
2022-12-06T05:48:27.811Z,11.23
2022-12-06T05:50:54.721Z,10.27
2022-12-06T05:53:21.815Z,11.73
2022-12-06T05:55:48.957Z,9.23
2022-12-06T05:58:16.220Z,10.82
2022-12-06T06:00:46.740Z,10.20
2022-12-06T06:03:13.772Z,8.30
2022-12-06T06:05:50.956Z,8.45
2022-12-06T06:08:18.386Z,9.98
2022-12-06T06:10:45.218Z,9.48
2022-12-06T06:13:12.303Z,9.80
2022-12-06T06:15:39.951Z,9.02
2022-12-06T06:18:06.657Z,9.55
2022-12-06T06:20:33.586Z,7.85
2022-12-06T06:23:00.320Z,9.88
2022-12-06T06:25:26.992Z,8.63
2022-12-06T06:27:53.809Z,8.75
2022-12-06T06:30:20.606Z,9.32
2022-12-06T06:32:47.385Z,7.53
2022-12-06T06:35:16.405Z,9.07
2022-12-06T06:37:43.275Z,8.88
2022-12-06T06:40:11.562Z,9.00
2022-12-06T06:42:38.725Z,9.75
2022-12-06T06:45:06.339Z,8.05
2022-12-06T06:47:33.659Z,9.15
2022-12-06T06:50:00.732Z,9.65
2022-12-06T06:52:28.302Z,8.15
2022-12-06T06:54:55.474Z,10.05
2022-12-06T06:57:23.277Z,7.47
2022-12-06T06:59:50.257Z,9.73
2022-12-06T07:02:20.490Z,8.95
2022-12-06T07:04:47.753Z,8.00
2022-12-06T07:07:20.793Z,8.63
2022-12-06T07:09:48.027Z,8.52
2022-12-06T07:12:15.484Z,9.07
2022-12-06T07:14:42.279Z,5.88
2022-12-06T07:17:09.567Z,8.43
2022-12-06T07:19:36.384Z,8.30
2022-12-06T07:22:03.042Z,7.57
2022-12-06T07:24:29.889Z,8.93
2022-12-06T07:26:57.529Z,9.13
2022-12-06T07:29:24.261Z,8.27
2022-12-06T07:31:50.984Z,7.88
2022-12-06T07:34:17.664Z,8.38
2022-12-06T07:36:44.499Z,7.75
2022-12-06T07:39:14.811Z,8.77
2022-12-06T07:42:01.015Z,8.45
2022-12-06T07:45:04.623Z,10.80
2022-12-06T07:47:36.450Z,7.90
2022-12-06T07:50:06.111Z,8.02
2022-12-06T07:52:37.253Z,8.80
2022-12-06T07:55:05.798Z,8.52
2022-12-06T07:57:32.910Z,8.18
2022-12-06T08:00:00.500Z,9.82
2022-12-06T08:02:28.736Z,8.05
2022-12-06T08:04:55.937Z,8.32
2022-12-06T08:07:22.852Z,8.05
2022-12-06T08:09:51.231Z,8.82
2022-12-06T08:12:17.973Z,10.05
2022-12-06T08:14:44.825Z,11.07
2022-12-06T08:17:11.900Z,10.38
2022-12-06T08:19:38.712Z,7.60
2022-12-06T08:22:08.797Z,9.18
2022-12-06T08:24:36.298Z,8.27
2022-12-06T08:27:03.096Z,13.88
2022-12-06T08:29:29.824Z,9.77
2022-12-06T08:31:56.667Z,7.80
2022-12-06T08:34:23.629Z,9.07
2022-12-06T08:36:50.324Z,8.35
2022-12-06T08:39:17.185Z,8.80
2022-12-06T08:41:56.250Z,9.75
2022-12-06T08:44:23.186Z,8.30
2022-12-06T08:46:50.344Z,7.75
2022-12-06T08:49:17.682Z,7.70
2022-12-06T08:51:45.021Z,10.05
2022-12-06T08:54:14.509Z,7.72
2022-12-06T08:56:41.406Z,7.65
2022-12-06T08:59:08.472Z,7.90
2022-12-06T09:01:38.173Z,8.20
2022-12-06T09:04:07.919Z,8.13
2022-12-06T09:06:37.244Z,8.65
2022-12-06T09:09:04.094Z,7.60
2022-12-06T09:11:30.924Z,8.55
2022-12-06T09:13:58.090Z,8.50
2022-12-06T09:16:25.394Z,9.73
2022-12-06T09:18:52.573Z,8.45
2022-12-06T09:21:21.900Z,8.00
2022-12-06T09:23:49.260Z,8.13
2022-12-06T09:26:16.381Z,10.13
2022-12-06T09:28:44.734Z,8.35
2022-12-06T09:31:11.725Z,8.45
2022-12-06T09:33:38.571Z,8.23
2022-12-06T09:36:11.530Z,7.43
2022-12-06T09:38:40.649Z,8.93
2022-12-06T09:41:37.656Z,8.38
2022-12-06T09:44:13.431Z,7.47
2022-12-06T09:47:07.922Z,6.63
2022-12-06T09:49:52.932Z,7.70
2022-12-06T09:52:33.532Z,7.80
2022-12-06T09:55:17.540Z,8.07
2022-12-06T09:58:26.004Z,6.65
2022-12-06T10:01:07.120Z,5.40
2022-12-06T10:04:04.560Z,6.13
2022-12-06T10:06:39.684Z,6.68
2022-12-06T10:09:19.581Z,6.50
2022-12-06T10:11:52.334Z,5.78
2022-12-06T10:14:43.920Z,6.88
2022-12-06T10:17:26.329Z,6.40
2022-12-06T10:20:15.556Z,7.43
2022-12-06T10:23:02.537Z,6.70
2022-12-06T10:25:43.178Z,5.82
2022-12-06T10:28:15.085Z,6.75
2022-12-06T10:30:52.647Z,5.57
2022-12-06T10:33:30.426Z,6.90
2022-12-06T10:36:02.398Z,7.32
2022-12-06T10:38:46.647Z,7.13
2022-12-06T10:41:42.474Z,5.70
2022-12-06T10:44:21.596Z,5.63
2022-12-06T10:47:07.160Z,6.22
2022-12-06T10:49:51.971Z,6.18
2022-12-06T10:52:41.074Z,7.00
2022-12-06T10:55:11.029Z,6.10
2022-12-06T10:57:48.948Z,6.95
2022-12-06T11:00:16.566Z,7.38
2022-12-06T11:03:11.698Z,9.50
2022-12-06T11:05:43.262Z,10.68
2022-12-06T11:08:18.365Z,7.35
2022-12-06T11:10:46.265Z,7.78
2022-12-06T11:13:41.133Z,8.50
2022-12-06T11:16:26.545Z,7.70
2022-12-06T11:18:56.892Z,8.50
2022-12-06T11:21:34.576Z,8.38
2022-12-06T11:24:08.665Z,8.55
2022-12-06T11:26:38.974Z,8.85
2022-12-06T11:29:11.180Z,8.50
2022-12-06T11:31:45.827Z,8.05
2022-12-06T11:34:23.472Z,8.60
2022-12-06T11:36:56.646Z,9.20
2022-12-06T11:39:27.053Z,7.60
2022-12-06T11:41:56.731Z,8.15
2022-12-06T11:44:25.926Z,8.23
2022-12-06T11:47:03.014Z,7.78
2022-12-06T11:49:35.791Z,9.23
2022-12-06T11:52:39.310Z,8.02
2022-12-06T11:55:17.957Z,8.20
2022-12-06T11:57:53.894Z,8.35
2022-12-06T12:00:23.759Z,8.50
2022-12-06T12:02:53.478Z,10.10
2022-12-06T12:05:23.557Z,8.80
2022-12-06T12:08:05.850Z,9.05
2022-12-06T12:10:36.204Z,8.95
2022-12-06T12:13:30.852Z,9.35
2022-12-06T12:16:03.102Z,7.32
2022-12-06T12:18:33.520Z,9.95
2022-12-06T12:21:01.869Z,7.95
2022-12-06T12:23:32.552Z,7.97
2022-12-06T12:26:00.998Z,6.60
2022-12-06T12:28:30.520Z,8.07
2022-12-06T12:31:08.548Z,10.95
2022-12-06T12:33:36.296Z,6.80
2022-12-06T12:36:02.956Z,5.63
2022-12-06T12:38:46.247Z,8.55
2022-12-06T12:41:23.758Z,7.13
2022-12-06T12:47:14.900Z,6.47
2022-12-06T12:49:41.694Z,6.88
2022-12-06T12:52:28.938Z,5.28
2022-12-06T12:55:14.020Z,8.60
2022-12-06T12:57:41.978Z,5.32
2022-12-06T13:00:18.157Z,6.90
2022-12-06T13:02:49.073Z,6.30
2022-12-06T13:05:35.406Z,7.53
2022-12-06T13:08:13.655Z,7.07
2022-12-06T13:10:43.922Z,6.47
2022-12-06T13:13:20.478Z,6.10
2022-12-06T13:15:52.206Z,6.20
2022-12-06T13:18:29.847Z,6.45
2022-12-06T13:21:02.685Z,6.07
2022-12-06T13:23:34.351Z,7.25
2022-12-06T13:26:14.876Z,7.82
2022-12-06T13:28:45.863Z,8.77
2022-12-06T13:31:17.465Z,6.40
2022-12-06T13:33:51.721Z,6.03
2022-12-06T13:36:19.584Z,5.68
2022-12-06T13:38:46.620Z,6.82
2022-12-06T13:41:54.136Z,6.90
2022-12-06T13:44:44.790Z,7.68
2022-12-06T13:47:26.836Z,7.72
2022-12-06T13:49:59.301Z,7.93
2022-12-06T13:52:47.271Z,4.95
2022-12-06T13:55:26.270Z,5.72
2022-12-06T13:57:56.361Z,5.93
2022-12-06T14:00:32.068Z,6.00
2022-12-06T14:03:08.603Z,5.55
2022-12-06T14:06:15.900Z,6.60
2022-12-06T14:08:47.075Z,5.90
2022-12-06T14:11:16.607Z,5.70
2022-12-06T14:13:55.588Z,6.05
2022-12-06T14:16:30.926Z,6.30
2022-12-06T14:18:58.008Z,5.88
2022-12-06T14:21:31.709Z,5.40
2022-12-06T14:23:58.837Z,6.28
2022-12-06T14:26:27.048Z,6.55
2022-12-06T14:28:56.610Z,5.57
2022-12-06T14:31:26.903Z,6.43
2022-12-06T14:33:54.972Z,5.70
2022-12-06T14:36:34.068Z,5.47
2022-12-06T14:39:05.996Z,8.73
2022-12-06T14:41:56.538Z,5.70
2022-12-06T14:44:31.940Z,6.10
2022-12-06T14:46:59.395Z,6.78
2022-12-06T14:49:46.475Z,4.53
2022-12-06T14:52:22.530Z,6.10
2022-12-06T14:54:50.271Z,5.57
2022-12-06T14:57:24.944Z,5.18
2022-12-06T15:00:28.038Z,5.53
2022-12-06T15:03:23.393Z,7.15
2022-12-06T15:06:09.137Z,6.00
2022-12-06T15:08:37.286Z,6.30
2022-12-06T15:11:41.689Z,6.85
2022-12-06T15:14:12.935Z,9.13
2022-12-06T15:16:40.808Z,6.85
2022-12-06T15:19:12.582Z,7.75
2022-12-06T15:21:39.354Z,6.93
2022-12-06T15:24:24.728Z,5.80
2022-12-06T15:26:51.611Z,6.50
2022-12-06T15:29:18.555Z,5.93
2022-12-06T15:31:49.854Z,4.95
2022-12-06T15:34:21.737Z,5.95
2022-12-06T15:36:49.260Z,8.32
2022-12-06T15:39:16.823Z,6.13
2022-12-06T15:41:43.870Z,5.38
2022-12-06T15:44:15.831Z,5.85
2022-12-06T15:46:43.453Z,6.13
2022-12-06T15:49:19.050Z,5.80
2022-12-06T15:51:45.786Z,6.32
2022-12-06T15:54:21.593Z,7.22
2022-12-06T15:56:48.861Z,6.55
2022-12-06T15:59:15.644Z,8.00
2022-12-06T16:01:51.034Z,6.68
2022-12-06T16:04:20.088Z,6.78
2022-12-06T16:06:47.121Z,8.35
2022-12-06T16:09:15.100Z,5.88
2022-12-06T16:11:41.792Z,7.57
2022-12-06T16:14:09.196Z,4.97
2022-12-06T16:16:42.927Z,6.30
2022-12-06T16:19:10.157Z,7.28
2022-12-06T16:21:50.214Z,5.82
2022-12-06T16:24:17.026Z,7.78
2022-12-06T16:26:45.247Z,10.50
2022-12-06T16:29:17.899Z,7.25
2022-12-06T16:31:45.395Z,7.68
2022-12-06T16:34:12.250Z,10.30
2022-12-06T16:36:56.577Z,6.57
2022-12-06T16:39:23.409Z,6.15
2022-12-06T16:41:50.181Z,8.02
2022-12-06T16:44:17.142Z,8.50
2022-12-06T16:46:44.655Z,6.53
2022-12-06T16:52:10.078Z,7.05
2022-12-06T16:54:39.129Z,6.95
2022-12-06T16:57:05.947Z,6.25
2022-12-06T16:59:32.809Z,6.22
2022-12-06T17:01:59.638Z,7.18
2022-12-06T17:04:26.859Z,7.15
2022-12-06T17:06:53.961Z,6.50
2022-12-06T17:09:20.882Z,5.90
2022-12-06T17:12:02.887Z,5.47
2022-12-06T17:14:30.128Z,5.95
2022-12-06T17:16:57.343Z,6.85
2022-12-06T17:19:28.877Z,5.82
2022-12-06T17:21:55.621Z,5.18
2022-12-06T17:24:24.576Z,5.40
2022-12-06T17:26:54.130Z,6.88
2022-12-06T17:29:21.762Z,4.50
2022-12-06T17:31:48.566Z,6.10
2022-12-06T17:34:15.871Z,5.88
2022-12-06T17:36:43.214Z,6.32
2022-12-06T17:39:10.805Z,5.32
2022-12-06T17:41:56.187Z,7.38
2022-12-06T17:44:23.057Z,6.00
2022-12-06T17:46:49.992Z,6.22
2022-12-06T17:49:19.642Z,6.93
2022-12-06T17:51:46.501Z,6.43
2022-12-06T17:54:13.992Z,6.75
2022-12-06T17:56:46.178Z,7.25
2022-12-06T17:59:21.010Z,10.52
2022-12-06T18:04:35.942Z,7.63
2022-12-06T18:07:02.921Z,7.38
2022-12-06T18:09:29.742Z,7.10
2022-12-06T18:11:56.895Z,7.70
2022-12-06T18:14:23.709Z,8.02
2022-12-06T18:16:50.606Z,9.65
2022-12-06T18:19:19.537Z,7.88
2022-12-06T18:21:47.127Z,8.75
2022-12-06T18:24:25.628Z,15.85
2022-12-06T18:26:54.811Z,13.20
2022-12-06T18:29:23.564Z,13.38
2022-12-06T18:31:51.715Z,11.63
2022-12-06T18:34:18.967Z,10.68
2022-12-06T18:36:46.591Z,10.52
2022-12-06T18:39:16.397Z,12.65
2022-12-06T18:41:44.336Z,9.48
2022-12-06T18:44:11.852Z,10.70
2022-12-06T18:46:39.414Z,9.38
2022-12-06T18:49:07.038Z,10.57
2022-12-06T18:51:36.060Z,9.80
2022-12-06T18:54:05.181Z,12.35
2022-12-06T18:56:33.235Z,10.98
2022-12-06T18:59:02.283Z,10.82
2022-12-06T19:01:32.043Z,10.68
2022-12-06T19:04:00.971Z,12.13
2022-12-06T19:06:30.380Z,13.85
2022-12-06T19:08:59.942Z,12.95
2022-12-06T19:11:26.877Z,11.20
2022-12-06T19:13:55.170Z,14.82
2022-12-06T19:16:26.756Z,13.38
2022-12-06T19:18:55.451Z,12.70
2022-12-06T19:21:23.027Z,13.98
2022-12-06T19:23:52.385Z,12.25
2022-12-06T19:26:19.211Z,13.30
2022-12-06T19:28:46.080Z,13.38
2022-12-06T19:31:14.063Z,14.70
2022-12-06T19:33:44.038Z,11.85
2022-12-06T19:36:25.512Z,14.38
2022-12-06T19:39:00.359Z,18.40
2022-12-06T19:41:27.503Z,12.65
2022-12-06T19:44:13.309Z,14.40
2022-12-06T19:46:42.824Z,11.30
2022-12-06T19:49:10.502Z,12.15
2022-12-06T19:51:42.199Z,13.52
2022-12-06T19:54:10.416Z,13.93
2022-12-06T19:56:39.365Z,11.30
2022-12-06T19:59:11.835Z,11.45
2022-12-06T20:01:40.770Z,15.45
2022-12-06T20:04:08.225Z,11.32
2022-12-06T20:06:35.580Z,11.27
2022-12-06T20:09:02.690Z,11.35
2022-12-06T20:11:48.034Z,10.75
2022-12-06T20:14:18.040Z,10.93
2022-12-06T20:16:45.076Z,10.40
2022-12-06T20:19:13.877Z,10.88
2022-12-06T20:21:42.505Z,10.10
2022-12-06T20:24:18.964Z,11.07
2022-12-06T20:26:46.319Z,9.57
2022-12-06T20:29:13.329Z,9.38
2022-12-06T20:31:40.213Z,10.60
2022-12-06T20:34:13.092Z,9.43
2022-12-06T20:36:41.713Z,8.65
2022-12-06T20:39:08.885Z,9.20
2022-12-06T20:41:35.968Z,8.38
2022-12-06T20:44:02.924Z,7.85
2022-12-06T20:46:32.560Z,10.50
2022-12-06T20:49:03.877Z,7.60
2022-12-06T20:51:31.143Z,7.47
2022-12-06T20:54:00.968Z,18.00
2022-12-06T20:56:30.676Z,5.93
2022-12-06T20:58:59.478Z,6.18
2022-12-06T21:01:29.673Z,6.15
2022-12-06T21:03:56.835Z,5.93
2022-12-06T21:06:25.115Z,4.93
2022-12-06T21:08:53.497Z,4.45
2022-12-06T21:11:33.981Z,4.85
2022-12-06T21:14:21.506Z,4.57
2022-12-06T21:16:49.917Z,4.85
2022-12-06T21:19:19.638Z,4.57
2022-12-06T21:21:53.309Z,5.68
2022-12-06T21:24:21.649Z,5.05
2022-12-06T21:26:48.895Z,4.85
2022-12-06T21:29:28.194Z,4.20
2022-12-06T21:31:57.560Z,4.50
2022-12-06T21:34:24.380Z,6.28
2022-12-06T21:36:51.229Z,6.90
2022-12-06T21:39:17.967Z,4.75
2022-12-06T21:41:45.925Z,4.80
2022-12-06T21:44:13.175Z,5.65
2022-12-06T21:46:40.089Z,5.47
2022-12-06T21:49:06.924Z,5.35
2022-12-06T21:51:33.751Z,7.70
2022-12-06T21:54:01.619Z,8.40
2022-12-06T21:56:29.804Z,8.63
2022-12-06T21:58:57.000Z,7.30
2022-12-06T22:01:28.017Z,6.40
2022-12-06T22:03:58.134Z,7.25
2022-12-06T22:06:25.555Z,8.38
2022-12-06T22:08:58.876Z,7.90
2022-12-06T22:11:25.897Z,9.68
2022-12-06T22:13:59.093Z,10.90
2022-12-06T22:16:26.750Z,11.35
2022-12-06T22:18:57.244Z,11.23
2022-12-06T22:21:26.793Z,10.82
2022-12-06T22:23:54.002Z,9.07
2022-12-06T22:26:23.145Z,10.60
2022-12-06T22:28:50.260Z,10.85
2022-12-06T22:31:21.728Z,11.43
2022-12-06T22:33:49.558Z,9.18
2022-12-06T22:36:16.503Z,11.13
2022-12-06T22:38:43.398Z,11.15
2022-12-06T22:41:10.793Z,10.82
2022-12-06T22:43:38.620Z,11.98
2022-12-06T22:46:06.242Z,12.82
2022-12-06T22:48:33.075Z,13.85
2022-12-06T22:51:14.701Z,12.75
2022-12-06T22:53:43.530Z,14.02
2022-12-06T22:56:10.760Z,12.60
2022-12-06T22:58:37.835Z,11.98
2022-12-06T23:01:17.085Z,12.75
2022-12-06T23:03:45.770Z,12.68
2022-12-06T23:06:13.746Z,13.25
2022-12-06T23:08:40.742Z,13.27
2022-12-06T23:11:16.095Z,14.23
2022-12-06T23:13:43.170Z,14.25
2022-12-06T23:16:14.946Z,15.00
2022-12-06T23:18:42.612Z,16.27
2022-12-06T23:21:18.585Z,12.70
2022-12-06T23:23:47.635Z,18.00
2022-12-06T23:26:17.817Z,15.40
2022-12-06T23:28:45.177Z,12.90
2022-12-06T23:31:14.180Z,11.60
2022-12-06T23:33:42.145Z,11.02
2022-12-06T23:36:09.493Z,11.65
2022-12-06T23:38:36.457Z,12.48
2022-12-06T23:41:08.377Z,13.90
2022-12-06T23:43:35.920Z,13.70
2022-12-06T23:46:07.480Z,13.10
2022-12-06T23:48:35.492Z,10.68
2022-12-06T23:51:06.729Z,12.68
2022-12-06T23:53:34.396Z,11.48
2022-12-06T23:56:13.032Z,12.30
2022-12-06T23:58:40.363Z,14.32
